Time;durP1;ratioP1;P1;durP2;ratioP2;P2;SDS_P1;SDS_P2;PMS_P1;PMS_P2;Temp;Humidity;BMP_temperature;BMP_pressure;BME280_temperature;BME280_humidity;BME280_pressure;Samples;Min_cycle;Max_cycle;Signal;HPM_P1;HPM_P2
2022/01/13 00:01:10;;;;;;;48.95;22.02;;;2.50;99.90;;;;;;5015400;28;20049;-58
2022/01/13 00:03:35;;;;;;;52.80;23.05;;;2.50;99.90;;;;;;5014537;28;20061;-58
2022/01/13 00:06:01;;;;;;;53.60;20.85;;;2.50;99.90;;;;;;5027694;28;20498;-59
2022/01/13 00:08:27;;;;;;;54.13;22.40;;;2.50;99.90;;;;;;5016344;28;20044;-59
2022/01/13 00:10:52;;;;;;;48.00;21.70;;;2.50;99.90;;;;;;5011911;28;20088;-60
2022/01/13 00:13:25;;;;;;;59.20;23.25;;;2.50;99.90;;;;;;5017313;28;20091;-59
2022/01/13 00:16:22;;;;;;;46.95;21.70;;;2.50;99.90;;;;;;5029168;28;20037;-59
2022/01/13 00:18:48;;;;;;;53.22;21.35;;;2.50;99.90;;;;;;5029119;28;20024;-58
2022/01/13 00:21:29;;;;;;;52.22;22.15;;;2.50;99.90;;;;;;5028147;28;20872;-60
2022/01/13 00:23:57;;;;;;;53.47;23.35;;;2.50;99.90;;;;;;5026749;28;20034;-60
2022/01/13 00:26:25;;;;;;;47.85;21.20;;;2.50;99.90;;;;;;5041757;28;20433;-59
2022/01/13 00:28:55;;;;;;;53.65;22.95;;;2.60;99.90;;;;;;5048880;28;20033;-59
2022/01/13 00:31:28;;;;;;;52.13;22.25;;;2.60;99.90;;;;;;5027480;28;20148;-58
2022/01/13 00:34:04;;;;;;;50.80;22.17;;;2.60;99.90;;;;;;5025839;28;20439;-58
2022/01/13 00:36:34;;;;;;;49.05;21.70;;;2.60;99.90;;;;;;5028077;28;20140;-57
2022/01/13 00:39:00;;;;;;;45.88;21.70;;;2.50;99.90;;;;;;5031855;28;20036;-58
2022/01/13 00:41:28;;;;;;;49.33;21.20;;;2.50;99.90;;;;;;5030425;28;20376;-59
2022/01/13 00:43:56;;;;;;;54.80;22.10;;;2.50;99.90;;;;;;5033352;28;20033;-59
2022/01/13 00:46:23;;;;;;;46.72;22.10;;;2.50;99.90;;;;;;5034663;28;20071;-58
2022/01/13 00:48:51;;;;;;;56.25;24.40;;;2.50;99.90;;;;;;5020666;28;20040;-59
2022/01/13 00:51:18;;;;;;;63.22;25.92;;;2.50;99.90;;;;;;5034838;28;20647;-58
2022/01/13 00:53:43;;;;;;;59.95;23.38;;;2.60;99.90;;;;;;5032693;28;20021;-58
2022/01/13 00:56:10;;;;;;;55.72;22.23;;;2.50;99.90;;;;;;5032479;28;20033;-57
2022/01/13 00:58:36;;;;;;;46.70;21.98;;;2.50;99.90;;;;;;5031605;28;20029;-58
2022/01/13 01:01:04;;;;;;;54.40;22.05;;;2.60;99.90;;;;;;5030983;28;20036;-57
2022/01/13 01:03:30;;;;;;;49.97;21.70;;;2.50;99.90;;;;;;5031678;28;20037;-57
2022/01/13 01:05:57;;;;;;;54.53;22.02;;;2.50;99.90;;;;;;5032489;28;20116;-57
2022/01/13 01:08:23;;;;;;;61.97;24.27;;;2.50;99.90;;;;;;5032379;28;20037;-58
2022/01/13 01:10:52;;;;;;;54.85;23.02;;;2.50;99.90;;;;;;5046044;28;20578;-56
2022/01/13 01:13:22;;;;;;;56.17;23.90;;;2.60;99.90;;;;;;5032580;28;20028;-56
2022/01/13 01:15:52;;;;;;;60.13;25.08;;;2.60;99.90;;;;;;5032142;28;20031;-58
2022/01/13 01:31:48;;;;;;;67.90;27.60;;;2.60;99.90;;;;;;5030873;28;20033;-59
2022/01/13 01:36:48;;;;;;;64.85;26.70;;;2.60;99.90;;;;;;5030467;28;20029;-58
2022/01/13 01:39:14;;;;;;;64.93;26.75;;;2.60;99.90;;;;;;5027226;28;20652;-56
2022/01/13 01:41:43;;;;;;;69.57;27.27;;;2.60;99.90;;;;;;5029785;28;20035;-59
2022/01/13 01:44:10;;;;;;;65.88;25.92;;;2.60;99.90;;;;;;5031659;28;20025;-56
2022/01/13 01:46:38;;;;;;;69.75;28.13;;;2.60;99.90;;;;;;5029394;28;20079;-58
2022/01/13 01:49:19;;;;;;;71.88;28.63;;;2.60;99.90;;;;;;5014557;28;20054;-58
2022/01/13 01:51:47;;;;;;;71.05;30.52;;;2.60;99.90;;;;;;5025965;28;20109;-59
2022/01/13 01:54:13;;;;;;;67.30;31.88;;;2.60;99.90;;;;;;5030579;28;20083;-58
2022/01/13 01:56:40;;;;;;;68.03;30.65;;;2.60;99.90;;;;;;5028965;28;20021;-60
2022/01/13 01:59:07;;;;;;;77.28;31.08;;;2.60;99.90;;;;;;5027330;28;20017;-57
2022/01/13 02:01:33;;;;;;;70.32;30.38;;;2.70;99.90;;;;;;5014809;28;20045;-59
2022/01/13 02:03:59;;;;;;;73.85;34.13;;;2.60;99.90;;;;;;5024975;28;20021;-58
2022/01/13 02:06:24;;;;;;;72.55;32.47;;;2.60;99.90;;;;;;5028311;28;20032;-57
2022/01/13 02:08:50;;;;;;;72.95;31.90;;;2.60;99.90;;;;;;5024798;28;20037;-58
2022/01/13 02:11:16;;;;;;;72.25;30.45;;;2.60;99.90;;;;;;5028600;28;20395;-59
2022/01/13 02:13:48;;;;;;;68.63;32.22;;;2.60;99.90;;;;;;5030781;28;20116;-57
2022/01/13 02:16:37;;;;;;;62.13;29.02;;;2.60;99.90;;;;;;5029915;28;20021;-59
2022/01/13 02:19:03;;;;;;;67.20;30.52;;;2.60;99.90;;;;;;5021663;28;20502;-58
2022/01/13 02:21:29;;;;;;;64.55;30.48;;;2.60;99.90;;;;;;5022959;28;20442;-54
2022/01/13 02:23:55;;;;;;;72.50;31.98;;;2.50;99.90;;;;;;5029759;28;20029;-57
2022/01/13 02:26:21;;;;;;;70.57;29.85;;;2.50;99.90;;;;;;5030558;28;20091;-59
2022/01/13 02:28:53;;;;;;;72.95;33.33;;;2.50;99.90;;;;;;5031187;28;20048;-58
2022/01/13 02:31:19;;;;;;;68.15;29.75;;;2.60;99.90;;;;;;5030129;28;20391;-56
2022/01/13 02:33:45;;;;;;;61.13;28.90;;;2.50;99.90;;;;;;5029493;28;20024;-58
2022/01/13 02:36:17;;;;;;;68.10;30.33;;;2.50;99.90;;;;;;5028430;28;20021;-59
2022/01/13 02:38:51;;;;;;;66.78;29.10;;;2.50;99.90;;;;;;5028241;28;20022;-53
2022/01/13 02:41:16;;;;;;;66.23;31.27;;;2.50;99.90;;;;;;5027992;28;20168;-57
2022/01/13 02:43:46;;;;;;;60.05;29.95;;;2.50;99.90;;;;;;5030390;28;20276;-58
2022/01/13 02:46:54;;;;;;;75.07;31.08;;;2.50;99.90;;;;;;5028693;28;20036;-58
2022/01/13 02:49:23;;;;;;;72.03;29.70;;;2.60;99.90;;;;;;5007268;28;20042;-58
2022/01/13 02:51:52;;;;;;;63.05;31.13;;;2.60;99.90;;;;;;5019613;28;20030;-58
2022/01/13 02:54:19;;;;;;;63.60;30.10;;;2.60;99.90;;;;;;5017315;28;20021;-59
2022/01/13 02:56:45;;;;;;;63.28;31.40;;;2.60;99.90;;;;;;5025096;28;20025;-58
2022/01/13 02:59:12;;;;;;;72.55;31.15;;;2.50;99.90;;;;;;5015770;28;20108;-58
2022/01/13 03:01:39;;;;;;;67.93;30.45;;;2.60;99.90;;;;;;5018161;28;20033;-58
2022/01/13 03:04:07;;;;;;;68.57;31.10;;;2.50;99.90;;;;;;5018513;28;20462;-58
2022/01/13 03:06:36;;;;;;;72.47;32.50;;;2.50;99.90;;;;;;5014300;28;20030;-58
2022/01/13 03:09:07;;;;;;;64.20;30.10;;;2.50;99.90;;;;;;5021641;28;20042;-59
2022/01/13 03:11:36;;;;;;;68.38;31.75;;;2.50;99.90;;;;;;5027998;28;20082;-59
2022/01/13 03:14:11;;;;;;;60.33;29.23;;;2.50;99.90;;;;;;5030311;28;20520;-58
2022/01/13 03:16:43;;;;;;;74.03;30.90;;;2.50;99.90;;;;;;5024998;28;20078;-60
2022/01/13 03:19:09;;;;;;;65.53;30.35;;;2.60;99.90;;;;;;5025296;28;20014;-57
2022/01/13 03:21:36;;;;;;;67.63;31.05;;;2.50;99.90;;;;;;5030489;28;20048;-58
2022/01/13 03:24:07;;;;;;;69.25;32.38;;;2.50;99.90;;;;;;5028404;28;20868;-59
2022/01/13 03:26:33;;;;;;;71.65;30.88;;;2.50;99.90;;;;;;5030065;28;20032;-57
2022/01/13 03:29:15;;;;;;;65.40;30.25;;;2.50;99.90;;;;;;5028518;28;20021;-58
2022/01/13 03:31:45;;;;;;;71.40;29.58;;;2.50;99.90;;;;;;5028876;28;20032;-57
2022/01/13 03:34:13;;;;;;;67.40;30.55;;;2.50;99.90;;;;;;5026358;28;20622;-59
2022/01/13 03:36:39;;;;;;;72.82;32.35;;;2.50;99.90;;;;;;5029058;28;20025;-58
2022/01/13 03:39:06;;;;;;;63.33;29.30;;;2.50;99.90;;;;;;5027282;28;20033;-58
2022/01/13 03:41:34;;;;;;;63.97;29.25;;;2.50;99.90;;;;;;5029495;28;20044;-58
2022/01/13 03:44:05;;;;;;;64.63;27.63;;;2.50;99.90;;;;;;5026756;28;20029;-59
2022/01/13 03:46:33;;;;;;;68.97;28.42;;;2.50;99.90;;;;;;5027639;28;20036;-58
2022/01/13 03:48:58;;;;;;;61.08;25.50;;;2.50;99.90;;;;;;5028324;28;20025;-61
2022/01/13 03:51:24;;;;;;;68.20;29.13;;;2.50;99.90;;;;;;5028982;28;20025;-58
2022/01/13 03:54:21;;;;;;;62.60;26.80;;;2.40;99.90;;;;;;5029479;28;20039;-57
2022/01/13 03:57:27;;;;;;;63.22;26.52;;;2.50;99.90;;;;;;4978647;28;20106;-58
2022/01/13 04:00:11;;;;;;;71.22;28.27;;;2.50;99.90;;;;;;5015172;28;20441;-59
2022/01/13 04:02:36;;;;;;;67.35;30.77;;;2.50;99.90;;;;;;5024940;28;20398;-59
2022/01/13 04:05:03;;;;;;;73.25;29.60;;;2.50;99.90;;;;;;5028808;28;20037;-58
2022/01/13 04:07:28;;;;;;;67.38;26.95;;;2.40;99.90;;;;;;5026721;28;20033;-59
2022/01/13 04:09:54;;;;;;;79.30;28.73;;;2.40;99.90;;;;;;5027560;28;20095;-58
2022/01/13 04:12:22;;;;;;;81.95;30.10;;;2.50;99.90;;;;;;5029779;28;20112;-59
2022/01/13 04:14:52;;;;;;;67.40;28.33;;;2.50;99.90;;;;;;5031502;28;20029;-59
2022/01/13 04:17:21;;;;;;;63.85;27.15;;;2.50;99.90;;;;;;5033111;28;20116;-57
2022/01/13 04:19:47;;;;;;;68.47;27.83;;;2.50;99.90;;;;;;5033096;28;20021;-57
2022/01/13 04:22:15;;;;;;;65.05;28.45;;;2.50;99.90;;;;;;5033309;28;20029;-57
2022/01/13 04:24:45;;;;;;;59.55;26.33;;;2.40;99.90;;;;;;5029888;28;20474;-58
2022/01/13 04:27:20;;;;;;;73.15;27.98;;;2.40;99.90;;;;;;5032893;28;20555;-59
2022/01/13 04:29:48;;;;;;;64.93;28.50;;;2.40;99.90;;;;;;5030118;28;20539;-58
2022/01/13 04:32:14;;;;;;;71.13;27.85;;;2.40;99.90;;;;;;5024081;28;20411;-59
2022/01/13 04:34:39;;;;;;;66.18;28.58;;;2.40;99.90;;;;;;5027174;28;20056;-59
2022/01/13 04:37:05;;;;;;;63.35;27.73;;;2.40;99.90;;;;;;5033165;28;20022;-59
2022/01/13 04:39:32;;;;;;;71.95;29.52;;;2.40;99.90;;;;;;5029272;28;20022;-57
2022/01/13 04:41:58;;;;;;;70.95;28.67;;;2.40;99.90;;;;;;5032980;28;20033;-58
2022/01/13 04:44:25;;;;;;;70.57;28.80;;;2.40;99.90;;;;;;5030787;28;20025;-55
2022/01/13 04:46:53;;;;;;;67.93;28.77;;;2.40;99.90;;;;;;5032750;28;20037;-58
2022/01/13 04:49:20;;;;;;;72.35;30.48;;;2.40;99.90;;;;;;5031986;28;20068;-60
2022/01/13 04:51:51;;;;;;;65.10;28.95;;;2.40;99.90;;;;;;5032724;28;20502;-59
2022/01/13 04:54:17;;;;;;;65.95;27.48;;;2.40;99.90;;;;;;5028001;28;20111;-59
2022/01/13 04:57:03;;;;;;;64.22;27.60;;;2.30;99.90;;;;;;5030635;28;20048;-58
2022/01/13 04:59:29;;;;;;;66.22;26.80;;;2.30;99.90;;;;;;5031859;28;20030;-54
2022/01/13 05:01:54;;;;;;;70.93;29.33;;;2.30;99.90;;;;;;5032813;28;20033;-58
2022/01/13 05:04:21;;;;;;;58.90;26.88;;;2.30;99.90;;;;;;5031134;28;20376;-59
2022/01/13 05:06:46;;;;;;;63.22;27.52;;;2.30;99.90;;;;;;5032587;28;20036;-60
2022/01/13 05:09:12;;;;;;;60.85;28.23;;;2.40;99.90;;;;;;5030232;28;20037;-58
2022/01/13 05:11:38;;;;;;;60.88;26.92;;;2.30;99.90;;;;;;5030654;28;20044;-59
2022/01/13 05:14:03;;;;;;;61.53;27.55;;;2.40;99.90;;;;;;5030730;28;20065;-59
2022/01/13 05:19:17;;;;;;;67.70;26.50;;;2.30;99.90;;;;;;5028741;28;20040;-59
2022/01/13 05:24:09;;;;;;;65.72;27.20;;;2.30;99.90;;;;;;5028865;28;20514;-59
2022/01/13 05:26:34;;;;;;;64.05;28.40;;;2.30;99.90;;;;;;5027420;28;20033;-59
2022/01/13 05:29:00;;;;;;;67.43;28.23;;;2.30;99.90;;;;;;5029602;28;20144;-58
2022/01/13 05:31:25;;;;;;;64.07;27.05;;;2.30;99.90;;;;;;5030384;28;20037;-59
2022/01/13 05:33:51;;;;;;;69.28;28.73;;;2.30;99.90;;;;;;5036567;28;20111;-59
2022/01/13 05:36:16;;;;;;;63.88;28.13;;;2.30;99.90;;;;;;5030092;28;20032;-59
2022/01/13 05:38:42;;;;;;;66.85;29.23;;;2.30;99.90;;;;;;5030496;28;20044;-59
2022/01/13 05:41:09;;;;;;;59.35;25.52;;;2.30;99.90;;;;;;5030974;28;20486;-58
2022/01/13 05:43:35;;;;;;;67.20;30.02;;;2.30;99.90;;;;;;5032440;28;20045;-59
2022/01/13 05:46:01;;;;;;;65.68;27.77;;;2.30;99.90;;;;;;5032102;28;20534;-58
2022/01/13 05:48:27;;;;;;;74.93;29.90;;;2.30;99.90;;;;;;5031415;28;20100;-60
2022/01/13 05:50:52;;;;;;;70.72;30.08;;;2.30;99.90;;;;;;5031604;28;20040;-59
2022/01/13 05:53:18;;;;;;;70.22;27.40;;;2.20;99.90;;;;;;5028349;28;20025;-59
2022/01/13 05:55:43;;;;;;;77.75;30.85;;;2.20;99.90;;;;;;5030395;28;20025;-59
2022/01/13 05:58:09;;;;;;;65.57;29.95;;;2.30;99.90;;;;;;5031008;28;20028;-59
2022/01/13 06:00:35;;;;;;;73.88;29.83;;;2.30;99.90;;;;;;5029752;28;20558;-59
2022/01/13 06:03:02;;;;;;;77.80;31.63;;;2.30;99.90;;;;;;5030251;28;20479;-59
2022/01/13 06:05:27;;;;;;;78.50;31.58;;;2.30;99.90;;;;;;5030019;28;20029;-58
2022/01/13 06:07:53;;;;;;;68.53;29.27;;;2.30;99.90;;;;;;5030574;28;20068;-60
2022/01/13 06:10:19;;;;;;;106.75;42.45;;;2.30;99.90;;;;;;5028975;28;20026;-59
2022/01/13 06:12:47;;;;;;;99.47;40.33;;;2.30;99.90;;;;;;5031261;28;20033;-59
2022/01/13 06:15:15;;;;;;;81.55;34.17;;;2.30;99.90;;;;;;5029830;28;20442;-60
2022/01/13 06:17:42;;;;;;;72.00;30.85;;;2.30;99.90;;;;;;5027475;28;20029;-59
2022/01/13 06:20:10;;;;;;;73.63;29.48;;;2.30;99.90;;;;;;5033295;28;20097;-60
2022/01/13 06:22:37;;;;;;;65.82;27.17;;;2.20;99.90;;;;;;5027685;28;20068;-60
2022/01/13 06:25:04;;;;;;;67.88;28.05;;;2.20;99.90;;;;;;5029797;28;20057;-60
2022/01/13 06:27:30;;;;;;;63.10;26.45;;;2.20;99.90;;;;;;5027501;28;20037;-56
2022/01/13 06:29:56;;;;;;;65.22;27.60;;;2.20;99.90;;;;;;5025293;28;20048;-60
2022/01/13 06:32:22;;;;;;;67.55;31.02;;;2.20;99.90;;;;;;5028286;28;20091;-59
2022/01/13 06:34:48;;;;;;;75.70;30.35;;;2.20;99.90;;;;;;5027327;28;20109;-60
2022/01/13 06:37:14;;;;;;;77.07;30.00;;;2.20;99.90;;;;;;5024569;28;20029;-60
2022/01/13 06:39:40;;;;;;;71.15;29.48;;;2.20;99.90;;;;;;5025084;28;20045;-59
2022/01/13 06:42:06;;;;;;;74.57;28.48;;;2.10;99.90;;;;;;5025849;28;20033;-59
2022/01/13 06:44:32;;;;;;;77.10;29.83;;;2.10;99.90;;;;;;5030111;28;20072;-60
2022/01/13 06:46:57;;;;;;;77.03;30.67;;;2.10;99.90;;;;;;5028574;28;20053;-60
2022/01/13 06:49:23;;;;;;;68.90;29.67;;;2.10;99.90;;;;;;5031224;28;20022;-60
2022/01/13 06:51:49;;;;;;;72.13;29.40;;;2.10;99.90;;;;;;5027819;28;20097;-60
2022/01/13 06:54:14;;;;;;;83.25;32.75;;;2.10;99.90;;;;;;5027839;28;20070;-59
2022/01/13 06:56:40;;;;;;;74.32;28.55;;;2.10;99.90;;;;;;5028119;28;20025;-60
2022/01/13 06:59:10;;;;;;;72.97;29.27;;;2.20;99.90;;;;;;5029449;28;20025;-58
2022/01/13 07:01:37;;;;;;;73.05;28.75;;;2.20;99.90;;;;;;5028499;28;20087;-60
2022/01/13 07:04:03;;;;;;;72.28;28.58;;;2.20;99.90;;;;;;5030039;28;20116;-60
2022/01/13 07:06:29;;;;;;;74.15;30.08;;;2.20;99.90;;;;;;5028197;28;20144;-60
2022/01/13 07:08:54;;;;;;;76.05;30.65;;;2.20;99.90;;;;;;5029615;28;20410;-60
2022/01/13 07:11:20;;;;;;;66.97;29.13;;;2.20;99.90;;;;;;5021983;28;20037;-59
2022/01/13 07:13:45;;;;;;;71.13;29.13;;;2.20;99.90;;;;;;5027879;28;20041;-59
2022/01/13 07:16:12;;;;;;;77.90;32.97;;;2.20;99.90;;;;;;5029674;28;20052;-59
2022/01/13 07:18:40;;;;;;;83.50;31.33;;;2.10;99.90;;;;;;5029515;28;20120;-60
2022/01/13 07:21:08;;;;;;;78.03;29.98;;;2.10;99.90;;;;;;5022693;28;20052;-60
2022/01/13 07:23:33;;;;;;;84.55;32.40;;;2.10;99.90;;;;;;5027831;28;20037;-52
2022/01/13 07:25:59;;;;;;;82.97;30.85;;;2.00;99.90;;;;;;5027720;28;20029;-60
2022/01/13 07:28:25;;;;;;;76.28;30.08;;;2.10;99.90;;;;;;5029117;28;20124;-60
2022/01/13 07:30:50;;;;;;;72.82;30.15;;;2.10;99.90;;;;;;5025646;28;20137;-60
2022/01/13 07:33:16;;;;;;;70.57;29.83;;;2.10;99.90;;;;;;5027098;28;20065;-60
2022/01/13 07:35:42;;;;;;;85.57;32.20;;;2.00;99.90;;;;;;5026278;28;20462;-60
2022/01/13 07:38:07;;;;;;;78.25;29.75;;;2.10;99.90;;;;;;5029140;28;20524;-60
2022/01/13 07:40:34;;;;;;;69.43;30.40;;;2.10;99.90;;;;;;5027611;28;20183;-59
2022/01/13 07:43:00;;;;;;;66.32;28.67;;;2.00;99.90;;;;;;5028184;28;20117;-60
2022/01/13 07:45:25;;;;;;;77.25;29.50;;;2.00;99.90;;;;;;5026353;28;20138;-59
2022/01/13 07:47:51;;;;;;;69.88;29.15;;;2.00;99.90;;;;;;5026919;28;20037;-59
2022/01/13 07:50:17;;;;;;;74.68;28.20;;;2.00;99.90;;;;;;5028481;28;20444;-59
2022/01/13 07:52:43;;;;;;;70.05;29.17;;;2.10;99.90;;;;;;5025397;28;20063;-59
2022/01/13 07:55:10;;;;;;;82.95;30.30;;;2.10;99.90;;;;;;5027478;28;20021;-59
2022/01/13 07:57:36;;;;;;;77.35;29.80;;;2.10;99.90;;;;;;5028997;28;20434;-60
2022/01/13 08:00:04;;;;;;;80.25;30.20;;;2.00;99.90;;;;;;5007970;28;20109;-60
2022/01/13 08:02:32;;;;;;;72.68;30.55;;;2.10;99.90;;;;;;5022320;28;20424;-60
2022/01/13 08:04:58;;;;;;;68.90;29.80;;;2.10;99.90;;;;;;5028193;28;20104;-60
2022/01/13 08:07:24;;;;;;;85.47;31.85;;;2.00;99.90;;;;;;5027524;28;20128;-59
2022/01/13 08:09:49;;;;;;;81.15;31.30;;;2.00;99.90;;;;;;5027287;28;20033;-60
2022/01/13 08:12:15;;;;;;;74.00;28.80;;;2.00;99.90;;;;;;5028728;28;20025;-59
2022/01/13 08:14:40;;;;;;;76.88;30.48;;;2.00;99.90;;;;;;5021769;28;20406;-60
2022/01/13 08:17:08;;;;;;;72.00;27.35;;;1.90;99.90;;;;;;5022489;28;20018;-60
2022/01/13 08:19:46;;;;;;;75.03;27.52;;;1.90;99.90;;;;;;5028612;28;20025;-60
2022/01/13 08:22:12;;;;;;;74.90;30.48;;;2.00;99.90;;;;;;5026197;28;20026;-59
2022/01/13 08:24:38;;;;;;;75.65;29.75;;;2.00;99.90;;;;;;5027053;28;20029;-59
2022/01/13 08:27:05;;;;;;;71.30;27.33;;;2.00;99.90;;;;;;5028560;28;20458;-59
2022/01/13 08:29:30;;;;;;;79.32;30.17;;;2.00;99.90;;;;;;5028350;28;20033;-56
2022/01/13 08:31:56;;;;;;;71.38;28.42;;;2.00;99.90;;;;;;5028536;28;20048;-59
2022/01/13 08:34:22;;;;;;;67.88;28.52;;;2.00;99.90;;;;;;5026510;28;20499;-60
2022/01/13 08:36:47;;;;;;;68.45;27.20;;;2.00;99.90;;;;;;5026725;28;20030;-59
2022/01/13 08:39:13;;;;;;;63.35;28.25;;;2.00;99.90;;;;;;5026389;28;20029;-60
2022/01/13 08:41:40;;;;;;;71.90;29.38;;;2.10;99.90;;;;;;5028326;28;20040;-58
2022/01/13 08:44:06;;;;;;;66.35;27.73;;;2.10;99.90;;;;;;5027735;28;20062;-59
2022/01/13 08:46:31;;;;;;;77.50;27.98;;;2.00;99.90;;;;;;5026275;28;20175;-60
2022/01/13 08:48:57;;;;;;;81.30;30.63;;;2.00;99.90;;;;;;5025874;28;20057;-60
2022/01/13 08:51:22;;;;;;;72.15;30.25;;;2.00;99.90;;;;;;5027531;28;20036;-60
2022/01/13 08:53:48;;;;;;;72.70;29.02;;;2.00;99.90;;;;;;5028014;28;20021;-59
2022/01/13 08:56:15;;;;;;;69.95;28.15;;;2.00;99.90;;;;;;5028716;28;20039;-60
2022/01/13 08:58:41;;;;;;;78.53;30.70;;;2.00;99.90;;;;;;5031473;28;20490;-59
2022/01/13 09:01:07;;;;;;;74.80;28.08;;;2.00;99.90;;;;;;5015794;28;20081;-59
2022/01/13 09:03:34;;;;;;;69.53;28.73;;;2.00;99.90;;;;;;5032639;28;20056;-59
2022/01/13 09:05:59;;;;;;;70.57;29.08;;;2.00;99.90;;;;;;5032442;28;20022;-58
2022/01/13 09:08:25;;;;;;;66.68;27.23;;;2.00;99.90;;;;;;5031827;28;20100;-59
2022/01/13 09:10:51;;;;;;;80.53;31.98;;;2.00;99.90;;;;;;5031796;28;20037;-60
2022/01/13 09:13:17;;;;;;;74.88;30.42;;;2.00;99.90;;;;;;5032934;28;20044;-60
2022/01/13 09:15:49;;;;;;;74.75;30.25;;;2.00;99.90;;;;;;5034537;28;20049;-60
2022/01/13 09:18:18;;;;;;;75.55;28.60;;;2.10;99.90;;;;;;5033660;28;20021;-60
2022/01/13 09:20:46;;;;;;;72.60;27.27;;;2.20;99.90;;;;;;5028523;28;20108;-59
2022/01/13 09:23:11;;;;;;;62.72;26.35;;;2.30;99.90;;;;;;5030120;28;20041;-60
2022/01/13 09:25:37;;;;;;;67.47;26.83;;;2.30;99.90;;;;;;5032709;28;20140;-60
2022/01/13 09:28:07;;;;;;;69.43;26.00;;;2.30;99.90;;;;;;5032730;28;20068;-61
2022/01/13 09:30:34;;;;;;;58.67;25.67;;;2.40;99.90;;;;;;5031405;28;20546;-60
2022/01/13 09:33:00;;;;;;;63.17;24.63;;;2.30;99.90;;;;;;5031312;28;20224;-60
2022/01/13 09:35:26;;;;;;;54.50;21.75;;;2.40;99.90;;;;;;5030535;28;20029;-60
2022/01/13 09:37:51;;;;;;;52.50;24.13;;;2.50;99.90;;;;;;5027460;28;20164;-60
2022/01/13 09:40:17;;;;;;;57.78;25.42;;;2.50;99.90;;;;;;5027582;28;20028;-61
2022/01/13 09:42:45;;;;;;;59.50;26.80;;;2.50;99.90;;;;;;5028556;28;20029;-61
2022/01/13 09:45:14;;;;;;;54.55;24.67;;;2.60;99.90;;;;;;5031906;28;20109;-60
2022/01/13 09:47:40;;;;;;;61.63;26.40;;;2.60;99.90;;;;;;5035123;28;20255;-62
2022/01/13 09:50:13;;;;;;;55.47;23.75;;;2.60;99.90;;;;;;5031743;28;20029;-60
2022/01/13 09:52:40;;;;;;;59.70;25.38;;;2.60;99.90;;;;;;5030987;28;20487;-61
2022/01/13 09:55:09;;;;;;;66.55;26.58;;;2.60;99.90;;;;;;5031428;28;20022;-61
2022/01/13 09:57:34;;;;;;;57.47;24.65;;;2.70;99.90;;;;;;5030957;28;20431;-61
2022/01/13 10:00:00;;;;;;;64.18;25.88;;;2.80;99.90;;;;;;5030604;28;20025;-60
2022/01/13 10:02:26;;;;;;;58.28;25.17;;;2.90;99.90;;;;;;5022937;28;20054;-61
2022/01/13 10:04:54;;;;;;;61.53;25.90;;;3.00;99.90;;;;;;5030978;28;20029;-61
2022/01/13 10:07:43;;;;;;;59.40;27.23;;;3.00;99.90;;;;;;5030097;28;20120;-60
2022/01/13 10:10:14;;;;;;;55.47;24.15;;;3.00;99.90;;;;;;5029434;28;20044;-60
2022/01/13 10:12:42;;;;;;;52.03;22.50;;;3.00;99.90;;;;;;5029249;28;20037;-60
2022/01/13 10:18:07;;;;;;;52.85;24.20;;;3.30;99.90;;;;;;5027862;28;20083;-61
2022/01/13 10:20:33;;;;;;;53.70;24.33;;;3.20;99.90;;;;;;5030201;28;20030;-61
2022/01/13 10:23:10;;;;;;;51.17;22.83;;;3.30;99.90;;;;;;5029967;28;20403;-59
2022/01/13 10:25:37;;;;;;;49.90;22.95;;;3.20;99.90;;;;;;5029312;28;20683;-57
2022/01/13 10:28:15;;;;;;;47.50;22.73;;;3.20;99.90;;;;;;5030589;28;20032;-60
2022/01/13 10:30:43;;;;;;;43.15;20.40;;;3.40;99.90;;;;;;5031006;28;20036;-60
2022/01/13 10:33:16;;;;;;;42.45;20.45;;;3.30;99.90;;;;;;5029003;28;20033;-61
2022/01/13 10:35:42;;;;;;;48.30;23.45;;;3.40;99.90;;;;;;5029810;28;20419;-60
2022/01/13 10:38:08;;;;;;;43.58;20.65;;;3.40;99.90;;;;;;5029735;28;20027;-61
2022/01/13 10:40:39;;;;;;;49.72;22.05;;;3.50;99.90;;;;;;5029142;28;20021;-60
2022/01/13 10:43:06;;;;;;;51.33;21.70;;;3.40;99.90;;;;;;5029435;28;20117;-60
2022/01/13 10:45:35;;;;;;;49.47;22.23;;;3.30;99.90;;;;;;5027469;28;20086;-60
2022/01/13 10:48:05;;;;;;;50.72;23.40;;;3.20;99.90;;;;;;5027237;28;20029;-61
2022/01/13 10:50:35;;;;;;;55.25;24.17;;;3.40;99.90;;;;;;5028633;28;20465;-60
2022/01/13 10:53:07;;;;;;;53.08;21.60;;;3.40;99.90;;;;;;5028621;28;20124;-61
2022/01/13 10:55:39;;;;;;;49.53;22.52;;;3.40;99.90;;;;;;5025389;28;20025;-60
2022/01/13 10:58:04;;;;;;;48.10;22.40;;;3.30;99.90;;;;;;5024307;28;20021;-60
2022/01/13 11:00:33;;;;;;;51.47;21.73;;;3.20;99.90;;;;;;5014198;28;20624;-60
2022/01/13 11:03:00;;;;;;;53.20;22.08;;;3.00;99.90;;;;;;5027415;28;20033;-61
2022/01/13 11:05:27;;;;;;;44.50;20.08;;;3.00;99.90;;;;;;5029131;28;20368;-59
2022/01/13 11:07:53;;;;;;;39.53;18.98;;;3.00;99.90;;;;;;5026354;28;20114;-60
2022/01/13 11:10:20;;;;;;;52.17;22.08;;;3.00;99.90;;;;;;5020144;28;20594;-59
2022/01/13 11:12:55;;;;;;;50.30;22.35;;;3.10;99.90;;;;;;5027668;28;20026;-60
2022/01/13 11:15:20;;;;;;;;;;;3.10;99.90;;;;;;5029985;28;20030;-60
2022/01/13 11:17:46;;;;;;;52.42;19.75;;;3.30;99.90;;;;;;5025869;28;19924;-60
2022/01/13 11:20:20;;;;;;;50.97;22.33;;;3.30;99.90;;;;;;5027851;28;20018;-61
2022/01/13 11:22:48;;;;;;;43.65;21.17;;;3.30;99.90;;;;;;5026963;28;20053;-61
2022/01/13 11:25:16;;;;;;;44.10;20.95;;;3.40;99.90;;;;;;5023071;28;20099;-61
2022/01/13 11:27:44;;;;;;;53.35;23.55;;;3.50;99.90;;;;;;5024917;28;20057;-61
2022/01/13 11:30:15;;;;;;;48.22;22.98;;;3.50;99.90;;;;;;5025446;28;20022;-58
2022/01/13 11:32:45;;;;;;;48.17;20.98;;;3.50;99.90;;;;;;5023712;28;20411;-54
2022/01/13 11:35:19;;;;;;;48.10;22.52;;;3.50;99.90;;;;;;5026141;28;20033;-61
2022/01/13 11:37:45;;;;;;;51.53;20.23;;;3.60;99.90;;;;;;5023675;28;20028;-59
2022/01/13 11:40:26;;;;;;;49.25;21.20;;;3.70;99.90;;;;;;5025859;28;20037;-59
2022/01/13 11:42:52;;;;;;;45.47;20.42;;;3.80;99.90;;;;;;5026886;28;20029;-61
2022/01/13 11:45:20;;;;;;;44.50;19.50;;;3.80;99.90;;;;;;5026453;28;20194;-61
2022/01/13 11:47:47;;;;;;;46.00;21.70;;;3.90;99.90;;;;;;5019902;28;20053;-60
2022/01/13 11:50:18;;;;;;;45.67;20.92;;;3.80;99.90;;;;;;5028990;28;20025;-60
2022/01/13 11:52:53;;;;;;;50.40;21.45;;;3.80;99.90;;;;;;5025278;28;20029;-59
2022/01/13 11:55:29;;;;;;;45.13;21.25;;;3.80;99.90;;;;;;5024810;28;20030;-60
2022/01/13 11:58:15;;;;;;;43.10;21.00;;;3.80;99.90;;;;;;5024707;28;20163;-60
2022/01/13 12:00:43;;;;;;;46.55;20.05;;;3.80;99.90;;;;;;5012515;28;20034;-60
2022/01/13 12:03:24;;;;;;;44.42;19.35;;;3.70;99.90;;;;;;5025464;28;20116;-60
2022/01/13 12:05:49;;;;;;;41.47;17.38;;;3.70;99.90;;;;;;5021587;28;20075;-61
2022/01/13 12:08:40;;;;;;;44.42;19.52;;;3.80;99.90;;;;;;5025319;28;20046;-60
2022/01/13 12:11:08;;;;;;;43.38;19.40;;;3.90;99.90;;;;;;5021560;28;20034;-60
2022/01/13 12:13:37;;;;;;;43.67;18.75;;;3.90;99.90;;;;;;5024270;28;20033;-60
2022/01/13 12:16:08;;;;;;;42.28;19.00;;;3.90;99.90;;;;;;5023377;28;20033;-60
2022/01/13 12:18:43;;;;;;;43.30;19.50;;;3.90;99.90;;;;;;5026279;28;20025;-60
2022/01/13 12:21:28;;;;;;;41.53;19.50;;;3.90;99.90;;;;;;5024093;28;20100;-59
2022/01/13 12:23:54;;;;;;;;;;;4.00;99.90;;;;;;5027644;28;20025;-59
2022/01/13 12:26:34;;;;;;;40.08;18.45;;;4.00;99.90;;;;;;5022091;28;19916;-55
2022/01/13 12:29:13;;;;;;;38.97;17.35;;;4.00;99.90;;;;;;5023370;28;20021;-60
2022/01/13 12:31:51;;;;;;;38.10;16.90;;;4.00;99.90;;;;;;5027202;28;20113;-59
2022/01/13 12:34:29;;;;;;;37.08;18.02;;;4.00;99.90;;;;;;5030389;28;20018;-60
2022/01/13 12:37:20;;;;;;;38.83;18.98;;;4.10;99.90;;;;;;5024449;28;20022;-59
2022/01/13 12:39:47;;;;;;;34.30;16.88;;;4.00;99.90;;;;;;5030043;28;20029;-56
2022/01/13 12:42:20;;;;;;;37.47;17.80;;;4.10;99.90;;;;;;5031672;28;20026;-59
2022/01/13 12:47:30;;;;;;;30.30;16.75;;;4.10;99.90;;;;;;5024028;28;20040;-59
2022/01/13 12:49:56;;;;;;;38.15;19.67;;;4.10;99.90;;;;;;5025063;28;20045;-59
2022/01/13 12:52:23;;;;;;;36.53;17.67;;;4.10;99.90;;;;;;5024763;28;20446;-59
2022/01/13 12:54:49;;;;;;;35.25;17.73;;;4.10;99.90;;;;;;5028481;28;20029;-60
2022/01/13 12:57:16;;;;;;;37.05;16.85;;;4.20;99.90;;;;;;5029509;28;20105;-59
2022/01/13 12:59:42;;;;;;;36.17;18.08;;;4.20;99.90;;;;;;5025483;28;20061;-60
2022/01/13 13:02:08;;;;;;;36.47;17.05;;;4.20;99.90;;;;;;5014696;28;20050;-60
2022/01/13 13:04:35;;;;;;;37.15;17.52;;;4.30;99.90;;;;;;5030447;28;20062;-57
2022/01/13 13:07:02;;;;;;;33.05;15.75;;;4.30;99.90;;;;;;5028090;28;20083;-59
2022/01/13 13:09:29;;;;;;;34.83;18.23;;;4.30;99.90;;;;;;5027938;28;20438;-57
2022/01/13 13:12:00;;;;;;;31.23;15.30;;;4.30;99.90;;;;;;5030758;28;20457;-57